LYPT weather

CLOSED Batlava-Donja Penduha Air Base
Batlava, Pristina District, Kosovo

Public forecast

Using degrees Celsius for public forecast. Weather courtesy of forecast.io.

Closest aviation weather report (METAR) to Batlava-Donja Penduha Air Base

Closest report is Pri┼ítina International Airport, 18.5 nm (34.4 km) SSW. Retrieved 2020/03/31 06:30 UTC (8 minutes ago):

BKPR 310630Z 03014KT 9999 SCT030 BKN060 02/M04 Q1019 NOSIG RMK 17010095

Closest aviation forecast (TAF) to Batlava-Donja Penduha Air Base

Closest forecast is Pri┼ítina International Airport, 18.5 nm (34.4 km) SSW. Retrieved 2020/03/31 06:30 UTC (8 minutes ago):

TAF BKPR 310530Z 3106/0106 03012KT 9999 SCT030 BKN070 TEMPO 3123/0106 5000 -SN BR TEMPO 0102/0106 1500 SN BKN012 OVC020